Time;durP1;ratioP1;P1;durP2;ratioP2;P2;SDS_P1;SDS_P2;PMS_P1;PMS_P2;Temp;Humidity;BMP_temperature;BMP_pressure;BME280_temperature;BME280_humidity;BME280_pressure;Samples;Min_cycle;Max_cycle;Signal;HPM_P1;HPM_P2
2023/04/10 00:00:14;;;;;;;;;;;6.10;69.30;;;;;;4075442;29;19942;-83
2023/04/10 00:02:15;;;;;;;;;;;6.10;69.60;;;;;;4059171;29;19954;-83
2023/04/10 00:04:16;;;;;;;;;;;6.10;69.60;;;;;;4057891;29;19919;-84
2023/04/10 00:06:26;;;;;;;;;;;6.10;69.50;;;;;;4054188;29;19915;-85
2023/04/10 00:08:47;;;;;;;;;;;6.10;69.50;;;;;;4072983;29;19926;-83
2023/04/10 00:10:49;;;;;;;;;;;6.10;69.40;;;;;;4055952;29;20556;-84
2023/04/10 00:13:09;;;;;;;;;;;6.10;69.50;;;;;;4089548;28;19898;-83
2023/04/10 00:15:30;;;;;;;;;;;6.10;69.50;;;;;;4078681;29;19914;-84
2023/04/10 00:17:54;;;;;;;;;;;6.20;69.50;;;;;;4081306;29;19919;-84
2023/04/10 00:20:14;;;;;;;;;;;6.20;69.60;;;;;;4076802;29;19914;-84
2023/04/10 00:22:35;;;;;;;;;;;6.10;69.50;;;;;;4076136;29;19922;-84
2023/04/10 00:24:55;;;;;;;;;;;6.10;69.60;;;;;;4077111;29;20001;-85
2023/04/10 00:27:16;;;;;;;;;;;6.10;69.60;;;;;;4077579;29;19914;-84
2023/04/10 00:29:36;;;;;;;;;;;6.10;69.60;;;;;;4089523;28;19973;-83
2023/04/10 00:31:57;;;;;;;;;;;6.20;69.80;;;;;;4075115;29;19918;-83
2023/04/10 00:34:18;;;;;;;;;;;6.10;69.50;;;;;;4080939;29;19925;-84
2023/04/10 00:36:38;;;;;;;;;;;6.20;69.60;;;;;;4081868;29;19915;-84
2023/04/10 00:38:59;;;;;;;;;;;6.20;69.60;;;;;;4083135;29;19915;-84
2023/04/10 00:41:19;;;;;;;;;;;6.20;69.60;;;;;;4077679;29;20312;-84
2023/04/10 00:43:40;;;;;;;;;;;6.20;69.50;;;;;;4079518;29;19915;-84
2023/04/10 00:45:41;;;;;;;;;;;6.20;69.50;;;;;;4081315;29;19910;-84
2023/04/10 00:47:42;;;;;;;;;;;6.10;69.40;;;;;;4075253;29;19914;-84
2023/04/10 00:49:42;;;;;;;;;;;6.10;69.40;;;;;;4057806;29;19946;-84
2023/04/10 00:51:43;;;;;;;;;;;6.10;69.50;;;;;;4093394;28;19926;-84
2023/04/10 00:53:44;;;;;;;;;;;6.10;69.50;;;;;;4079811;29;19919;-84
2023/04/10 00:55:45;;;;;;;;;;;6.10;69.50;;;;;;4080235;29;19915;-84
2023/04/10 00:57:46;;;;;;;;;;;6.10;69.60;;;;;;4077442;29;19918;-84
2023/04/10 00:59:47;;;;;;;;;;;6.10;69.50;;;;;;4076972;29;20436;-83
2023/04/10 01:01:48;;;;;;;;;;;6.10;69.50;;;;;;4089208;28;19910;-84
2023/04/10 01:03:49;;;;;;;;;;;6.10;69.50;;;;;;4092270;28;19985;-84
2023/04/10 01:05:49;;;;;;;;;;;6.10;69.60;;;;;;4081291;29;19950;-84
2023/04/10 01:07:57;;;;;;;;;;;6.00;69.60;;;;;;4082853;29;20467;-84
2023/04/10 01:10:03;;;;;;;;;;;6.00;69.50;;;;;;4066522;29;19919;-84
2023/04/10 01:12:05;;;;;;;;;;;6.00;69.50;;;;;;4079998;29;19991;-84
2023/04/10 01:14:10;;;;;;;;;;;6.00;69.60;;;;;;4097007;28;19918;-84
2023/04/10 01:16:23;;;;;;;;;;;6.00;69.60;;;;;;4078602;29;20001;-84
2023/04/10 01:18:24;;;;;;;;;;;6.00;69.60;;;;;;4095148;28;19937;-84
2023/04/10 01:20:27;;;;;;;;;;;6.00;69.70;;;;;;4083057;29;19918;-84
2023/04/10 01:22:40;;;;;;;;;;;6.00;69.60;;;;;;4081517;29;19926;-85
2023/04/10 01:24:59;;;;;;;;;;;6.00;69.60;;;;;;4078033;29;19918;-83
2023/04/10 01:27:01;;;;;;;;;;;6.00;69.70;;;;;;4079522;28;19921;-84
2023/04/10 01:29:23;;;;;;;;;;;6.00;69.80;;;;;;4093738;28;19977;-84
2023/04/10 01:31:24;;;;;;;;;;;6.00;69.80;;;;;;4077462;29;19982;-84
2023/04/10 01:33:29;;;;;;;;;;;6.00;69.80;;;;;;4080096;29;19950;-84
2023/04/10 01:35:32;;;;;;;;;;;6.00;69.70;;;;;;4082256;29;20393;-84
2023/04/10 01:37:36;;;;;;;;;;;6.00;69.80;;;;;;4091617;28;19919;-83
2023/04/10 01:39:41;;;;;;;;;;;5.90;69.70;;;;;;4075229;29;19922;-84
2023/04/10 01:42:04;;;;;;;;;;;5.90;69.80;;;;;;4076956;29;19915;-84
2023/04/10 01:44:06;;;;;;;;;;;5.90;69.80;;;;;;4077669;29;19925;-84
2023/04/10 01:46:27;;;;;;;;;;;5.90;69.90;;;;;;4075297;29;19922;-84
2023/04/10 01:48:48;;;;;;;;;;;5.90;69.80;;;;;;4074229;29;19958;-84
2023/04/10 01:51:10;;;;;;;;;;;5.90;69.80;;;;;;4072730;29;19914;-84
2023/04/10 01:53:30;;;;;;;;;;;5.90;69.80;;;;;;4071567;29;20314;-83
2023/04/10 01:55:51;;;;;;;;;;;5.90;69.90;;;;;;4073210;29;19915;-84
2023/04/10 01:58:12;;;;;;;;;;;5.90;69.80;;;;;;4077883;29;19921;-85
2023/04/10 02:00:36;;;;;;;;;;;5.90;70.10;;;;;;4069972;29;19918;-85
2023/04/10 02:02:57;;;;;;;;;;;5.90;70.00;;;;;;4072761;29;20023;-84
2023/04/10 02:05:17;;;;;;;;;;;5.90;70.00;;;;;;4076690;29;19920;-84
2023/04/10 02:07:44;;;;;;;;;;;5.90;70.00;;;;;;4087094;28;19954;-84
2023/04/10 02:10:03;;;;;;;;;;;5.90;70.00;;;;;;4061327;29;19954;-84
2023/04/10 02:12:05;;;;;;;;;;;5.90;70.00;;;;;;4073828;29;19911;-84
2023/04/10 02:14:09;;;;;;;;;;;5.90;70.10;;;;;;4090287;28;19915;-83
2023/04/10 02:16:13;;;;;;;;;;;5.90;70.20;;;;;;4091211;28;19970;-83
2023/04/10 02:18:17;;;;;;;;;;;5.80;70.20;;;;;;4078947;29;19919;-85
2023/04/10 02:20:18;;;;;;;;;;;5.80;70.30;;;;;;4076774;29;19911;-85
2023/04/10 02:22:20;;;;;;;;;;;5.80;70.20;;;;;;4074767;29;19914;-83
2023/04/10 02:24:41;;;;;;;;;;;5.80;70.30;;;;;;4077871;28;19930;-84
2023/04/10 02:26:49;;;;;;;;;;;5.80;70.30;;;;;;4063538;29;20561;-84
2023/04/10 02:28:50;;;;;;;;;;;5.80;70.90;;;;;;4080013;29;20021;-83
2023/04/10 02:31:11;;;;;;;;;;;5.80;70.70;;;;;;4075886;29;19918;-84
2023/04/10 02:33:31;;;;;;;;;;;5.80;70.70;;;;;;4081076;28;20001;-84
2023/04/10 02:35:52;;;;;;;;;;;5.80;70.50;;;;;;4080168;29;19911;-84
2023/04/10 02:38:13;;;;;;;;;;;5.80;70.70;;;;;;4077578;29;19919;-84
2023/04/10 02:40:34;;;;;;;;;;;5.80;70.50;;;;;;4079205;29;19918;-84
2023/04/10 02:42:55;;;;;;;;;;;5.80;70.50;;;;;;4076456;29;19930;-84
2023/04/10 02:45:15;;;;;;;;;;;5.80;70.70;;;;;;4078237;29;19911;-85
2023/04/10 02:47:36;;;;;;;;;;;5.80;70.70;;;;;;4076364;29;19950;-85
2023/04/10 02:49:56;;;;;;;;;;;5.80;70.70;;;;;;4073741;29;19914;-84
2023/04/10 02:52:17;;;;;;;;;;;5.80;70.70;;;;;;4077130;29;20096;-84
2023/04/10 02:54:39;;;;;;;;;;;5.80;70.90;;;;;;4078158;28;20027;-84
2023/04/10 02:57:00;;;;;;;;;;;5.80;70.80;;;;;;4089188;28;20002;-85
2023/04/10 02:59:20;;;;;;;;;;;5.80;70.80;;;;;;4088463;28;20427;-85
2023/04/10 03:01:41;;;;;;;;;;;5.80;70.70;;;;;;4079226;29;19910;-85
2023/04/10 03:04:02;;;;;;;;;;;5.80;70.80;;;;;;4078903;29;19919;-84
2023/04/10 03:06:26;;;;;;;;;;;5.80;70.90;;;;;;4086515;29;19914;-84
2023/04/10 03:08:46;;;;;;;;;;;5.80;70.90;;;;;;4089635;29;19940;-84
2023/04/10 03:11:08;;;;;;;;;;;5.80;70.90;;;;;;4081913;29;19915;-85
2023/04/10 03:13:09;;;;;;;;;;;5.80;70.80;;;;;;4095524;28;19921;-84
2023/04/10 03:15:10;;;;;;;;;;;5.80;70.80;;;;;;4093401;28;19963;-84
2023/04/10 03:17:11;;;;;;;;;;;5.80;70.90;;;;;;4077063;29;20178;-85
2023/04/10 03:19:11;;;;;;;;;;;5.80;70.90;;;;;;4081282;29;19938;-84
2023/04/10 03:21:12;;;;;;;;;;;5.90;71.00;;;;;;4081860;29;20585;-85
2023/04/10 03:23:12;;;;;;;;;;;5.80;71.00;;;;;;4066507;29;20046;-84
2023/04/10 03:25:13;;;;;;;;;;;5.90;71.10;;;;;;4080524;29;19910;-84
2023/04/10 03:27:15;;;;;;;;;;;5.80;71.10;;;;;;4076373;29;19983;-84
2023/04/10 03:29:17;;;;;;;;;;;5.90;71.20;;;;;;4093190;28;20359;-83
2023/04/10 03:31:18;;;;;;;;;;;5.80;71.10;;;;;;4080090;29;19918;-84
2023/04/10 03:33:19;;;;;;;;;;;5.80;71.00;;;;;;4078757;29;19917;-85
2023/04/10 03:35:20;;;;;;;;;;;5.80;71.10;;;;;;4066037;29;19938;-85
2023/04/10 03:37:41;;;;;;;;;;;5.80;71.00;;;;;;4080323;29;19942;-84
2023/04/10 03:39:42;;;;;;;;;;;5.80;70.90;;;;;;4081955;28;19919;-85
2023/04/10 03:42:03;;;;;;;;;;;5.90;71.10;;;;;;4073309;29;19929;-84
2023/04/10 03:44:03;;;;;;;;;;;5.80;70.90;;;;;;4078399;29;19930;-85
2023/04/10 03:46:24;;;;;;;;;;;5.80;71.00;;;;;;4076227;29;19915;-84
2023/04/10 03:48:45;;;;;;;;;;;5.80;70.90;;;;;;4089179;28;19922;-85
2023/04/10 03:51:05;;;;;;;;;;;5.80;70.80;;;;;;4081932;29;19971;-84
2023/04/10 03:53:06;;;;;;;;;;;5.80;70.70;;;;;;4078721;29;19915;-84
2023/04/10 03:55:07;;;;;;;;;;;5.80;70.80;;;;;;4077224;29;19953;-84
2023/04/10 03:57:07;;;;;;;;;;;5.80;70.80;;;;;;4090581;28;20284;-84
2023/04/10 03:59:08;;;;;;;;;;;5.80;70.80;;;;;;4090877;28;19914;-86
2023/04/10 04:01:08;;;;;;;;;;;5.80;70.80;;;;;;4075494;29;20521;-84
2023/04/10 04:03:09;;;;;;;;;;;5.80;70.90;;;;;;4091593;28;19915;-84
2023/04/10 04:05:09;;;;;;;;;;;5.80;70.90;;;;;;4079569;29;19922;-85
2023/04/10 04:07:12;;;;;;;;;;;5.80;70.80;;;;;;4080123;29;20281;-84
2023/04/10 04:09:13;;;;;;;;;;;5.80;70.80;;;;;;4066505;29;20413;-85
2023/04/10 04:11:13;;;;;;;;;;;5.70;70.70;;;;;;4068976;29;19926;-85
2023/04/10 04:13:14;;;;;;;;;;;5.70;70.70;;;;;;4080658;29;19918;-85
2023/04/10 04:15:14;;;;;;;;;;;5.70;70.70;;;;;;4082867;29;19922;-84
2023/04/10 04:17:15;;;;;;;;;;;5.70;70.60;;;;;;4096808;28;19913;-84
2023/04/10 04:19:15;;;;;;;;;;;5.70;70.60;;;;;;4078167;29;19910;-84
2023/04/10 04:21:19;;;;;;;;;;;5.60;70.50;;;;;;4080824;29;19915;-84
2023/04/10 04:23:19;;;;;;;;;;;5.60;70.50;;;;;;4095734;28;19926;-84
2023/04/10 04:25:20;;;;;;;;;;;5.60;70.60;;;;;;4084401;29;20010;-85
2023/04/10 04:27:22;;;;;;;;;;;5.60;70.60;;;;;;4067148;29;19915;-85
2023/04/10 04:29:22;;;;;;;;;;;5.50;70.50;;;;;;4081946;29;19914;-84
2023/04/10 04:31:23;;;;;;;;;;;5.50;70.50;;;;;;4065494;29;19961;-84
2023/04/10 04:33:24;;;;;;;;;;;5.50;70.50;;;;;;4080300;29;19939;-85
2023/04/10 04:35:25;;;;;;;;;;;5.50;70.60;;;;;;4087272;28;21242;-84
2023/04/10 04:37:25;;;;;;;;;;;5.50;70.60;;;;;;4093325;28;20007;-85
2023/04/10 04:39:26;;;;;;;;;;;5.50;70.60;;;;;;4066892;29;19925;-84
2023/04/10 04:41:29;;;;;;;;;;;5.40;70.60;;;;;;4078201;29;19914;-84
2023/04/10 04:43:30;;;;;;;;;;;5.40;70.60;;;;;;4079065;29;19923;-84
2023/04/10 04:45:31;;;;;;;;;;;5.40;70.60;;;;;;4094962;28;19994;-84
2023/04/10 04:47:31;;;;;;;;;;;5.40;70.60;;;;;;4081208;29;19943;-84
2023/04/10 04:49:32;;;;;;;;;;;5.40;70.70;;;;;;4081416;29;20653;-84
2023/04/10 04:51:32;;;;;;;;;;;5.40;70.70;;;;;;4067251;29;19903;-83
2023/04/10 04:53:33;;;;;;;;;;;5.40;70.80;;;;;;4084505;29;19917;-84
2023/04/10 04:55:34;;;;;;;;;;;5.40;70.90;;;;;;4083425;29;20489;-85
2023/04/10 04:57:34;;;;;;;;;;;5.30;71.00;;;;;;4096795;28;19953;-84
2023/04/10 04:59:37;;;;;;;;;;;5.40;71.10;;;;;;4076228;29;19911;-85
2023/04/10 05:01:37;;;;;;;;;;;5.30;71.10;;;;;;4078647;29;19934;-84
2023/04/10 05:03:38;;;;;;;;;;;5.30;71.20;;;;;;4082919;29;20409;-85
2023/04/10 05:05:38;;;;;;;;;;;5.30;71.20;;;;;;4077412;29;19915;-84
2023/04/10 05:07:39;;;;;;;;;;;5.40;71.40;;;;;;4081612;29;20001;-85
2023/04/10 05:09:40;;;;;;;;;;;5.40;71.40;;;;;;4062155;29;20257;-84
2023/04/10 05:11:41;;;;;;;;;;;5.40;71.40;;;;;;4076086;29;20549;-84
2023/04/10 05:13:41;;;;;;;;;;;5.40;71.50;;;;;;4088899;28;20423;-84
2023/04/10 05:15:44;;;;;;;;;;;5.40;71.50;;;;;;4093428;28;19911;-84
2023/04/10 05:17:45;;;;;;;;;;;5.40;71.60;;;;;;4077465;29;19946;-84
2023/04/10 05:19:46;;;;;;;;;;;5.50;71.70;;;;;;4092605;28;19940;-84
2023/04/10 05:21:46;;;;;;;;;;;5.40;71.60;;;;;;4063967;29;19912;-84
2023/04/10 05:23:47;;;;;;;;;;;5.60;71.80;;;;;;4075071;29;20492;-84
2023/04/10 05:25:47;;;;;;;;;;;5.50;71.70;;;;;;4077966;29;20431;-84
2023/04/10 05:27:48;;;;;;;;;;;5.50;71.70;;;;;;4074351;29;20389;-85
2023/04/10 05:29:49;;;;;;;;;;;5.50;71.90;;;;;;4070084;29;19911;-84
2023/04/10 05:31:50;;;;;;;;;;;5.50;72.00;;;;;;4073421;29;20466;-83
2023/04/10 05:33:50;;;;;;;;;;;5.60;72.10;;;;;;4076788;29;19933;-85
2023/04/10 05:35:52;;;;;;;;;;;5.60;72.20;;;;;;4075715;29;19911;-84
2023/04/10 05:37:52;;;;;;;;;;;5.70;72.30;;;;;;4063458;29;20029;-84
2023/04/10 05:39:53;;;;;;;;;;;5.70;72.40;;;;;;4071918;29;19906;-84
2023/04/10 05:41:54;;;;;;;;;;;5.80;72.60;;;;;;4085954;28;19922;-84
2023/04/10 05:43:54;;;;;;;;;;;5.80;72.70;;;;;;4075267;29;20352;-83
2023/04/10 05:45:55;;;;;;;;;;;5.90;72.90;;;;;;4077531;29;20435;-84
2023/04/10 05:47:55;;;;;;;;;;;5.90;72.90;;;;;;4079310;29;19917;-84
2023/04/10 05:49:56;;;;;;;;;;;6.00;73.80;;;;;;4072711;29;19915;-84
2023/04/10 05:51:56;;;;;;;;;;;6.00;73.10;;;;;;4077596;28;19915;-84
2023/04/10 05:53:57;;;;;;;;;;;6.10;73.20;;;;;;4077243;29;20199;-86
2023/04/10 05:55:58;;;;;;;;;;;6.20;73.30;;;;;;4078056;29;19915;-84
2023/04/10 05:57:59;;;;;;;;;;;6.20;73.30;;;;;;4056836;29;19930;-84
2023/04/10 05:59:59;;;;;;;;;;;6.40;74.20;;;;;;4072212;29;20426;-84
2023/04/10 06:02:01;;;;;;;;;;;6.40;73.60;;;;;;4077206;29;20361;-83
2023/04/10 06:04:01;;;;;;;;;;;6.50;73.70;;;;;;4079487;29;19919;-84
2023/04/10 06:06:02;;;;;;;;;;;6.50;73.70;;;;;;4078154;29;20066;-84
2023/04/10 06:08:03;;;;;;;;;;;6.60;73.70;;;;;;4078729;29;20001;-84
2023/04/10 06:10:04;;;;;;;;;;;6.70;73.70;;;;;;4060870;29;19921;-85
2023/04/10 06:12:04;;;;;;;;;;;6.80;73.80;;;;;;4079719;29;19942;-85
2023/04/10 06:14:05;;;;;;;;;;;6.90;73.90;;;;;;4061954;29;19923;-84
2023/04/10 06:16:06;;;;;;;;;;;7.00;73.90;;;;;;4077930;29;19915;-84
2023/04/10 06:18:07;;;;;;;;;;;7.00;73.80;;;;;;4067212;29;19942;-84
2023/04/10 06:20:08;;;;;;;;;;;7.00;73.70;;;;;;4091483;28;20168;-84
2023/04/10 06:22:09;;;;;;;;;;;7.10;73.90;;;;;;4079981;29;19915;-85
2023/04/10 06:24:10;;;;;;;;;;;7.20;73.90;;;;;;4084322;29;19911;-85
2023/04/10 06:26:11;;;;;;;;;;;7.20;73.80;;;;;;4079306;29;19926;-84
2023/04/10 06:28:12;;;;;;;;;;;7.30;73.80;;;;;;4079363;29;19914;-85
2023/04/10 06:30:13;;;;;;;;;;;7.40;73.80;;;;;;4079965;29;19926;-85
2023/04/10 06:32:13;;;;;;;;;;;7.40;73.70;;;;;;4061583;29;19942;-85
2023/04/10 06:34:14;;;;;;;;;;;7.50;73.60;;;;;;4059444;29;19916;-84
2023/04/10 06:36:15;;;;;;;;;;;7.50;73.60;;;;;;4080393;29;19918;-84
2023/04/10 06:38:16;;;;;;;;;;;7.60;73.60;;;;;;4077605;29;19910;-85
2023/04/10 06:40:16;;;;;;;;;;;7.60;73.50;;;;;;4077694;29;20436;-84
2023/04/10 06:42:25;;;;;;;;;;;7.70;73.50;;;;;;4083173;29;19958;-85
2023/04/10 06:44:30;;;;;;;;;;;7.70;73.50;;;;;;4092413;28;20069;-84
2023/04/10 06:47:09;;;;;;;;;;;7.80;73.40;;;;;;4078408;29;20373;-84
2023/04/10 06:49:35;;;;;;;;;;;7.90;74.20;;;;;;4075884;29;19918;-84
2023/04/10 06:51:49;;;;;;;;;;;;;;;;;;;;;
2023/04/10 06:53:56;;;;;;;;;;;8.00;73.30;;;;;;4088387;29;19966;-85
2023/04/10 06:55:56;;;;;;;;;;;8.10;73.20;;;;;;4079277;29;19922;-85
2023/04/10 07:03:15;;;;;;;;;;;8.20;72.90;;;;;;4296685;23;19969;-84
2023/04/10 07:05:16;;;;;;;;;;;8.20;72.80;;;;;;4070783;29;19915;-84
2023/04/10 07:07:18;;;;;;;;;;;8.20;72.70;;;;;;4083185;29;20113;-85
2023/04/10 07:09:21;;;;;;;;;;;8.30;72.70;;;;;;4084593;29;19915;-85
2023/04/10 07:11:42;;;;;;;;;;;8.40;72.70;;;;;;4092974;28;19921;-85
2023/04/10 07:14:02;;;;;;;;;;;8.40;72.80;;;;;;4084764;29;19899;-86
2023/04/10 07:16:05;;;;;;;;;;;8.50;72.80;;;;;;4069732;29;19926;-85
2023/04/10 07:18:17;;;;;;;;;;;8.50;72.70;;;;;;4066737;29;19939;-85
2023/04/10 07:20:37;;;;;;;;;;;8.60;72.80;;;;;;4082483;29;19919;-85
2023/04/10 07:22:58;;;;;;;;;;;8.70;72.80;;;;;;4073359;29;19918;-84
2023/04/10 07:25:19;;;;;;;;;;;8.70;72.80;;;;;;4075797;29;19914;-84
2023/04/10 07:27:24;;;;;;;;;;;8.80;72.90;;;;;;4062679;29;19942;-84
2023/04/10 07:29:45;;;;;;;;;;;8.90;73.00;;;;;;4077132;29;19915;-84
2023/04/10 07:32:24;;;;;;;;;;;9.00;73.10;;;;;;4079148;29;20491;-84
2023/04/10 07:38:22;;;;;;;;;;;9.30;73.50;;;;;;4043998;29;19920;-85
2023/04/10 07:40:43;;;;;;;;;;;9.50;73.60;;;;;;4050304;29;19931;-84
2023/04/10 07:43:06;;;;;;;;;;;9.70;73.40;;;;;;4049812;29;19923;-85
2023/04/10 07:45:27;;;;;;;;;;;9.80;73.20;;;;;;4052545;29;20409;-85
2023/04/10 07:47:47;;;;;;;;;;;9.90;73.00;;;;;;4038755;29;19908;-85
2023/04/10 07:50:08;;;;;;;;;;;10.00;72.70;;;;;;4048915;29;19952;-86
2023/04/10 07:52:29;;;;;;;;;;;10.10;72.50;;;;;;4041882;29;19999;-85
2023/04/10 07:54:33;;;;;;;;;;;10.20;72.30;;;;;;4031116;29;20499;-85
2023/04/10 07:56:33;;;;;;;;;;;10.30;71.90;;;;;;4029594;29;19926;-84
2023/04/10 07:58:34;;;;;;;;;;;10.30;71.50;;;;;;4031215;29;19988;-85
2023/04/10 08:00:35;;;;;;;;;;;10.40;71.30;;;;;;4028995;29;20023;-84
2023/04/10 08:02:36;;;;;;;;;;;10.50;71.00;;;;;;4033122;29;19920;-83
2023/04/10 08:04:36;;;;;;;;;;;10.60;70.70;;;;;;4036341;29;19939;-83
2023/04/10 08:06:37;;;;;;;;;;;10.60;70.40;;;;;;4053529;29;19964;-82
2023/04/10 08:08:38;;;;;;;;;;;10.60;70.10;;;;;;4015483;29;20023;-83
2023/04/10 08:10:39;;;;;;;;;;;10.70;70.10;;;;;;4029527;29;19971;-85
2023/04/10 08:12:39;;;;;;;;;;;10.70;70.00;;;;;;4016001;29;19923;-85
2023/04/10 08:14:40;;;;;;;;;;;10.80;69.90;;;;;;4075920;28;19961;-84
2023/04/10 08:16:40;;;;;;;;;;;10.90;70.00;;;;;;4061024;29;20141;-85
2023/04/10 08:19:13;;;;;;;;;;;10.90;69.90;;;;;;4079427;29;20017;-85
2023/04/10 08:21:28;;;;;;;;;;;11.00;69.80;;;;;;4075178;29;19983;-86
2023/04/10 08:23:31;;;;;;;;;;;11.10;69.70;;;;;;4077035;29;19925;-84
2023/04/10 08:25:35;;;;;;;;;;;11.20;69.50;;;;;;4070831;29;19965;-85
2023/04/10 08:27:36;;;;;;;;;;;11.30;69.50;;;;;;4086698;28;19999;-85
2023/04/10 08:29:39;;;;;;;;;;;11.30;69.20;;;;;;4078060;29;19915;-85
2023/04/10 08:31:40;;;;;;;;;;;11.40;69.30;;;;;;4059658;29;20152;-85
2023/04/10 08:33:40;;;;;;;;;;;11.50;69.20;;;;;;4077957;29;20017;-86
2023/04/10 08:35:41;;;;;;;;;;;11.50;68.70;;;;;;4058904;29;19946;-85
2023/04/10 08:37:41;;;;;;;;;;;11.60;68.70;;;;;;4075512;29;19911;-84
2023/04/10 08:39:44;;;;;;;;;;;11.70;68.70;;;;;;4076973;29;20010;-85
2023/04/10 08:41:45;;;;;;;;;;;11.80;68.60;;;;;;4075400;29;19955;-85
2023/04/10 08:43:46;;;;;;;;;;;11.90;68.40;;;;;;4075863;29;19919;-84
2023/04/10 08:45:47;;;;;;;;;;;12.00;68.40;;;;;;4078501;29;19962;-85
2023/04/10 08:47:50;;;;;;;;;;;12.00;68.20;;;;;;4079717;29;19994;-85
2023/04/10 08:49:56;;;;;;;;;;;12.20;68.20;;;;;;4085971;28;19922;-85
2023/04/10 08:51:58;;;;;;;;;;;12.20;67.30;;;;;;4072241;29;19915;-85
2023/04/10 08:54:04;;;;;;;;;;;12.30;67.40;;;;;;4073437;29;19923;-84
2023/04/10 08:56:06;;;;;;;;;;;12.40;67.50;;;;;;4060496;29;20384;-86
2023/04/10 08:58:07;;;;;;;;;;;12.50;67.00;;;;;;4075234;29;20001;-83
2023/04/10 09:00:08;;;;;;;;;;;12.60;67.10;;;;;;4091262;28;19950;-85
2023/04/10 09:02:09;;;;;;;;;;;12.70;67.00;;;;;;4061772;29;19911;-84
2023/04/10 09:04:10;;;;;;;;;;;12.80;66.70;;;;;;4063519;29;21237;-85
2023/04/10 09:06:13;;;;;;;;;;;12.90;66.60;;;;;;4068985;29;20006;-82
2023/04/10 09:08:14;;;;;;;;;;;13.00;66.20;;;;;;4068890;29;20006;-85
2023/04/10 09:10:14;;;;;;;;;;;13.00;66.00;;;;;;4080555;29;19992;-85
2023/04/10 09:12:15;;;;;;;;;;;13.10;65.80;;;;;;4081307;28;19918;-84
2023/04/10 09:14:23;;;;;;;;;;;13.20;65.10;;;;;;4076374;29;19981;-85
2023/04/10 09:16:27;;;;;;;;;;;13.30;65.60;;;;;;4081258;29;19982;-85
2023/04/10 09:18:47;;;;;;;;;;;13.40;65.50;;;;;;4081649;29;19922;-84
2023/04/10 09:20:50;;;;;;;;;;;13.50;64.40;;;;;;4078135;29;19915;-83
2023/04/10 09:22:51;;;;;;;;;;;13.50;63.90;;;;;;4083220;29;20021;-84
2023/04/10 09:24:51;;;;;;;;;;;13.70;62.70;;;;;;4093613;28;19945;-84
2023/04/10 09:26:52;;;;;;;;;;;13.70;62.60;;;;;;4064562;29;19899;-85
2023/04/10 09:29:03;;;;;;;;;;;13.80;62.60;;;;;;4053908;29;19925;-84
2023/04/10 09:31:23;;;;;;;;;;;13.90;62.20;;;;;;4057361;29;19919;-85
2023/04/10 09:33:28;;;;;;;;;;;13.90;62.60;;;;;;4054490;29;19922;-84
2023/04/10 09:35:37;;;;;;;;;;;14.00;62.10;;;;;;4072421;29;20225;-85
2023/04/10 09:37:39;;;;;;;;;;;14.10;62.00;;;;;;4073310;29;19937;-84
2023/04/10 09:39:41;;;;;;;;;;;14.20;61.10;;;;;;4071372;29;19911;-84
2023/04/10 09:41:49;;;;;;;;;;;14.40;61.00;;;;;;4055462;29;19918;-84
2023/04/10 09:44:04;;;;;;;;;;;14.40;61.10;;;;;;4073869;29;19915;-83
2023/04/10 09:46:04;;;;;;;;;;;14.40;60.90;;;;;;4069013;29;19973;-84
2023/04/10 09:48:06;;;;;;;;;;;14.50;61.00;;;;;;4055654;29;19918;-84
2023/04/10 09:50:07;;;;;;;;;;;14.60;61.00;;;;;;4071395;29;19988;-83
2023/04/10 09:52:31;;;;;;;;;;;14.70;60.70;;;;;;4074006;29;19972;-84
2023/04/10 09:54:35;;;;;;;;;;;14.80;60.90;;;;;;4078500;29;20013;-84
2023/04/10 09:56:37;;;;;;;;;;;14.90;59.80;;;;;;4078059;29;19927;-85
2023/04/10 09:58:38;;;;;;;;;;;15.00;59.90;;;;;;4077655;29;19950;-84
2023/04/10 10:00:40;;;;;;;;;;;15.00;59.70;;;;;;4076781;29;19911;-86
2023/04/10 10:02:41;;;;;;;;;;;15.10;59.20;;;;;;4087542;28;19957;-84
2023/04/10 10:04:42;;;;;;;;;;;15.20;58.90;;;;;;4076430;29;19982;-85
2023/04/10 10:06:43;;;;;;;;;;;15.30;58.80;;;;;;4077882;29;19941;-85
2023/04/10 10:08:44;;;;;;;;;;;15.30;58.10;;;;;;4084545;29;19919;-86
2023/04/10 10:10:52;;;;;;;;;;;15.40;58.30;;;;;;4077724;29;20120;-87
2023/04/10 10:12:55;;;;;;;;;;;15.40;58.20;;;;;;4079833;29;20668;-85
2023/04/10 10:15:00;;;;;;;;;;;15.50;57.80;;;;;;4079476;29;20144;-83
2023/04/10 10:17:04;;;;;;;;;;;15.60;57.90;;;;;;4073534;29;19919;-85
2023/04/10 10:19:11;;;;;;;;;;;15.60;57.70;;;;;;4076825;29;19919;-86
2023/04/10 10:21:12;;;;;;;;;;;15.70;57.20;;;;;;4076361;29;20537;-84
2023/04/10 10:23:14;;;;;;;;;;;15.80;57.40;;;;;;4076681;29;19945;-83
2023/04/10 10:25:14;;;;;;;;;;;15.80;57.40;;;;;;4075121;29;19925;-85
2023/04/10 10:27:17;;;;;;;;;;;15.90;57.50;;;;;;4073548;29;19911;-84
2023/04/10 10:29:18;;;;;;;;;;;15.90;55.40;;;;;;4073025;29;19922;-84
2023/04/10 10:31:21;;;;;;;;;;;16.00;54.80;;;;;;4085419;28;19918;-84
2023/04/10 10:33:23;;;;;;;;;;;16.00;55.40;;;;;;4079940;29;19915;-83
2023/04/10 10:35:25;;;;;;;;;;;16.10;55.30;;;;;;4078085;29;20016;-85
2023/04/10 10:37:27;;;;;;;;;;;16.10;55.40;;;;;;4083385;29;19919;-84
2023/04/10 10:39:47;;;;;;;;;;;16.20;55.30;;;;;;4081631;29;20159;-84
2023/04/10 10:41:53;;;;;;;;;;;16.20;53.90;;;;;;4082677;29;19910;-83
2023/04/10 10:44:06;;;;;;;;;;;16.30;53.90;;;;;;4087596;29;19969;-85
2023/04/10 10:46:10;;;;;;;;;;;16.30;53.50;;;;;;4086074;29;19919;-84
2023/04/10 10:48:11;;;;;;;;;;;16.30;53.20;;;;;;4102243;28;19918;-84
2023/04/10 10:50:11;;;;;;;;;;;16.50;53.60;;;;;;4081829;29;19925;-84
2023/04/10 10:52:12;;;;;;;;;;;16.40;53.50;;;;;;4081594;29;19961;-85
2023/04/10 10:54:28;;;;;;;;;;;16.50;52.70;;;;;;4077643;29;19919;-84
2023/04/10 10:56:32;;;;;;;;;;;16.50;52.80;;;;;;4076810;29;19920;-85
2023/04/10 10:58:46;;;;;;;;;;;16.50;51.60;;;;;;4079973;29;19925;-85
2023/04/10 11:00:49;;;;;;;;;;;16.50;52.40;;;;;;4099283;28;19925;-84
2023/04/10 11:03:08;;;;;;;;;;;16.60;52.40;;;;;;4078418;29;20348;-84
2023/04/10 11:05:08;;;;;;;;;;;16.60;52.20;;;;;;4093973;28;19922;-85
2023/04/10 11:07:09;;;;;;;;;;;16.60;51.80;;;;;;4081642;28;19918;-85
2023/04/10 11:09:30;;;;;;;;;;;16.70;51.70;;;;;;4081496;29;19988;-85
2023/04/10 11:11:53;;;;;;;;;;;16.70;50.60;;;;;;4083893;28;19918;-86
2023/04/10 11:13:57;;;;;;;;;;;16.70;51.70;;;;;;4081415;29;19915;-84
2023/04/10 11:16:01;;;;;;;;;;;16.80;51.10;;;;;;4098192;28;20194;-84
2023/04/10 11:18:02;;;;;;;;;;;16.80;50.50;;;;;;4084862;29;19915;-86
2023/04/10 11:20:03;;;;;;;;;;;16.80;51.40;;;;;;4077288;29;19946;-87
2023/04/10 11:22:06;;;;;;;;;;;16.90;51.50;;;;;;4082172;29;19915;-85
2023/04/10 11:24:08;;;;;;;;;;;16.90;51.00;;;;;;4084623;28;19927;-85
2023/04/10 11:26:09;;;;;;;;;;;17.00;51.30;;;;;;4078457;29;21004;-85
2023/04/10 11:28:32;;;;;;;;;;;17.00;50.20;;;;;;4079053;29;19921;-85
2023/04/10 11:30:34;;;;;;;;;;;17.10;51.00;;;;;;4097291;28;20085;-86
2023/04/10 11:32:44;;;;;;;;;;;17.10;51.40;;;;;;4078424;29;19919;-84
2023/04/10 11:34:47;;;;;;;;;;;17.20;51.10;;;;;;4092754;28;20028;-84
2023/04/10 11:36:49;;;;;;;;;;;17.20;51.30;;;;;;4091453;28;19957;-84
2023/04/10 11:38:55;;;;;;;;;;;17.20;51.10;;;;;;4083493;29;19919;-84
2023/04/10 11:41:05;;;;;;;;;;;17.30;50.50;;;;;;4080251;29;19915;-84
2023/04/10 11:43:13;;;;;;;;;;;17.30;49.00;;;;;;4072336;28;19918;-85
2023/04/10 11:45:22;;;;;;;;;;;17.40;49.80;;;;;;4075423;29;19919;-84
2023/04/10 11:47:23;;;;;;;;;;;17.40;49.50;;;;;;4072447;29;20487;-84
2023/04/10 11:49:30;;;;;;;;;;;17.40;48.20;;;;;;4073094;29;19930;-85
2023/04/10 11:51:31;;;;;;;;;;;17.40;48.80;;;;;;4081808;29;19914;-84
2023/04/10 11:53:31;;;;;;;;;;;17.40;48.50;;;;;;4099700;28;20005;-86
2023/04/10 11:55:38;;;;;;;;;;;17.40;48.20;;;;;;4083488;29;19914;-85
2023/04/10 11:57:38;;;;;;;;;;;17.40;48.40;;;;;;4077269;29;19911;-84
2023/04/10 11:59:39;;;;;;;;;;;17.50;48.60;;;;;;4077557;29;20293;-85
2023/04/10 12:01:40;;;;;;;;;;;17.50;48.00;;;;;;4079510;28;20103;-84
2023/04/10 12:03:53;;;;;;;;;;;17.50;47.90;;;;;;4084845;29;19985;-84
2023/04/10 12:05:55;;;;;;;;;;;17.50;46.60;;;;;;4085012;29;19918;-84
2023/04/10 12:07:56;;;;;;;;;;;17.50;46.90;;;;;;4078318;29;20175;-83
2023/04/10 12:09:57;;;;;;;;;;;17.50;47.30;;;;;;4085438;29;19945;-83
2023/04/10 12:12:05;;;;;;;;;;;17.60;46.90;;;;;;4087921;28;19910;-84
2023/04/10 12:14:08;;;;;;;;;;;17.60;46.90;;;;;;4082202;29;19930;-83
2023/04/10 12:16:15;;;;;;;;;;;17.60;47.20;;;;;;4084938;28;19927;-85
2023/04/10 12:18:17;;;;;;;;;;;17.60;46.40;;;;;;4084677;29;20009;-82
2023/04/10 12:20:17;;;;;;;;;;;17.60;46.70;;;;;;4084804;29;19914;-84
2023/04/10 12:22:55;;;;;;;;;;;17.70;46.00;;;;;;4083024;29;19915;-84
2023/04/10 12:25:19;;;;;;;;;;;17.80;46.40;;;;;;4093980;28;19914;-84
2023/04/10 12:27:47;;;;;;;;;;;17.70;46.00;;;;;;4094944;28;19915;-84
2023/04/10 12:30:07;;;;;;;;;;;17.80;46.50;;;;;;4079975;29;19915;-84
2023/04/10 12:32:28;;;;;;;;;;;17.80;45.90;;;;;;4079589;29;19933;-84
2023/04/10 12:34:50;;;;;;;;;;;17.80;45.70;;;;;;4083964;29;19919;-84